Terminal Aerodrome Forecast
Issued by NWS

Home | Current Version | Previous Version | Text Only | Print | Product List | Glossary On
Versions: 1 2 3 4 5 6 7 8 9 10 11 12 13 14
000
FTAK31 PAJN 310541
TAFAYA
TAF
PAYA 310541Z 3106/0106 00000KT P6SM SCT040 OVC080
     FM310900 00000KT P6SM BCFG FEW005 SCT100
     FM311700 04005KT P6SM FEW005 SCT100
     FM312100 VRB03KT P6SM BKN060 BKN120
      AMD LTD TO CLD VIS AND WIND 3106/3110=

USA.gov is the U.S. government's official web portal to all federal, state and local government web resources and services.